createdAt,value
2022-10-19T00:00:05.506Z,63.98
2022-10-19T00:02:55.502Z,64.07
2022-10-19T00:05:23.321Z,64.23
2022-10-19T00:07:51.124Z,64.22
2022-10-19T00:10:18.988Z,64.22
2022-10-19T00:15:55.303Z,64.19
2022-10-19T00:18:23.050Z,64.25
2022-10-19T00:20:51.917Z,64.15
2022-10-19T00:23:23.287Z,64.26
2022-10-19T00:25:56.629Z,64.42
2022-10-19T00:28:24.568Z,64.50
2022-10-19T00:30:52.826Z,64.60
2022-10-19T00:33:25.373Z,64.54
2022-10-19T00:36:02.103Z,64.55
2022-10-19T00:38:31.023Z,64.63
2022-10-19T00:41:02.514Z,64.83
2022-10-19T00:43:31.768Z,64.93
2022-10-19T00:46:05.375Z,65.06
2022-10-19T00:48:34.444Z,65.07
2022-10-19T00:51:09.572Z,65.07
2022-10-19T00:53:45.446Z,65.04
2022-10-19T00:56:21.418Z,65.02
2022-10-19T00:58:57.413Z,65.02
2022-10-19T01:01:27.394Z,64.98
2022-10-19T01:03:55.247Z,65.09
2022-10-19T01:06:28.452Z,65.21
2022-10-19T01:08:57.393Z,65.41
2022-10-19T01:11:53.771Z,65.46
2022-10-19T01:14:59.103Z,65.52
2022-10-19T01:17:39.539Z,65.45
2022-10-19T01:20:27.215Z,65.62
2022-10-19T01:23:25.766Z,65.61
2022-10-19T01:26:19.197Z,65.66
2022-10-19T01:28:54.056Z,65.80
2022-10-19T01:31:48.352Z,65.88
2022-10-19T01:34:33.165Z,65.90
2022-10-19T01:37:28.441Z,66.00
2022-10-19T01:40:12.698Z,66.00
2022-10-19T01:43:01.359Z,66.00
2022-10-19T01:45:44.720Z,65.94
2022-10-19T01:48:31.109Z,66.13
2022-10-19T01:51:11.442Z,66.08
2022-10-19T01:53:49.146Z,66.15
2022-10-19T01:56:23.677Z,66.24
2022-10-19T01:59:06.360Z,66.25
2022-10-19T02:01:38.780Z,66.30
2022-10-19T02:04:11.313Z,66.32
2022-10-19T02:06:41.665Z,66.34
2022-10-19T02:09:17.894Z,66.36
2022-10-19T02:11:53.416Z,66.44
2022-10-19T02:14:31.935Z,66.35
2022-10-19T02:17:05.342Z,66.47
2022-10-19T02:19:35.439Z,66.50
2022-10-19T02:22:14.419Z,66.47
2022-10-19T02:24:50.460Z,66.57
2022-10-19T02:27:26.002Z,66.47
2022-10-19T02:29:55.745Z,66.40
2022-10-19T02:32:28.390Z,66.41
2022-10-19T02:35:02.010Z,66.44
2022-10-19T02:37:32.308Z,66.56
2022-10-19T02:40:01.180Z,66.46
2022-10-19T02:42:54.376Z,66.45
2022-10-19T02:45:31.025Z,66.42
2022-10-19T02:48:05.046Z,66.54
2022-10-19T02:50:33.322Z,66.60
2022-10-19T02:53:01.557Z,66.54
2022-10-19T02:55:30.792Z,66.42
2022-10-19T02:58:02.270Z,66.56
2022-10-19T03:00:31.188Z,66.65
2022-10-19T03:03:02.923Z,66.67
2022-10-19T03:05:30.820Z,66.70
2022-10-19T03:08:00.684Z,66.62
2022-10-19T03:10:37.488Z,66.61
2022-10-19T03:13:12.314Z,66.62
2022-10-19T03:15:40.083Z,66.64
2022-10-19T03:18:13.256Z,66.76
2022-10-19T03:20:42.138Z,66.89
2022-10-19T03:23:11.027Z,67.03
2022-10-19T03:25:40.855Z,67.21
2022-10-19T03:28:08.685Z,67.19
2022-10-19T03:30:46.423Z,67.00
2022-10-19T03:33:20.496Z,66.91
2022-10-19T03:35:48.429Z,67.05
2022-10-19T03:38:17.475Z,66.97
2022-10-19T03:40:51.564Z,67.13
2022-10-19T03:43:20.435Z,67.20
2022-10-19T03:45:48.416Z,67.29
2022-10-19T03:48:22.412Z,67.20
2022-10-19T03:51:10.510Z,67.22
2022-10-19T03:53:40.637Z,67.36
2022-10-19T03:56:12.532Z,67.33
2022-10-19T03:58:42.101Z,67.22
2022-10-19T04:01:21.232Z,67.17
2022-10-19T04:03:56.133Z,67.26
2022-10-19T04:06:29.554Z,67.17
2022-10-19T04:08:59.481Z,67.40
2022-10-19T04:11:30.423Z,67.50
2022-10-19T04:14:32.482Z,67.56
2022-10-19T04:17:02.779Z,67.55
2022-10-19T04:19:38.405Z,67.40
2022-10-19T04:22:07.156Z,67.25
2022-10-19T04:24:37.061Z,67.20
2022-10-19T04:27:06.313Z,67.12
2022-10-19T04:29:37.239Z,67.08
2022-10-19T04:32:07.049Z,66.99
2022-10-19T04:34:37.664Z,67.07
2022-10-19T04:37:14.292Z,66.98
2022-10-19T04:39:43.395Z,66.97
2022-10-19T04:42:21.407Z,67.10
2022-10-19T04:44:51.365Z,67.15
2022-10-19T04:47:21.206Z,67.35
2022-10-19T04:49:52.379Z,67.55
2022-10-19T04:52:22.579Z,67.46
2022-10-19T04:54:50.412Z,67.35
2022-10-19T04:57:24.358Z,67.38
2022-10-19T04:59:59.438Z,67.33
2022-10-19T05:02:37.438Z,67.10
2022-10-19T05:05:05.765Z,67.02
2022-10-19T05:07:34.944Z,66.95
2022-10-19T05:10:04.068Z,66.98
2022-10-19T05:12:34.199Z,66.94
2022-10-19T05:15:05.798Z,66.92
2022-10-19T05:17:33.887Z,66.91
2022-10-19T05:20:11.382Z,66.97
2022-10-19T05:22:40.550Z,66.90
2022-10-19T05:25:09.126Z,67.04
2022-10-19T05:27:38.932Z,66.89
2022-10-19T05:30:14.781Z,66.97
2022-10-19T05:32:44.838Z,67.04
2022-10-19T05:35:16.387Z,66.93
2022-10-19T05:37:48.671Z,66.96
2022-10-19T05:40:17.449Z,66.89
2022-10-19T05:42:52.375Z,66.86
2022-10-19T05:45:21.272Z,66.71
2022-10-19T05:47:51.047Z,66.66
2022-10-19T05:50:20.012Z,66.68
2022-10-19T05:52:47.850Z,66.47
2022-10-19T05:55:20.299Z,66.39
2022-10-19T05:57:49.291Z,66.30
2022-10-19T06:00:20.424Z,66.12
2022-10-19T06:02:58.966Z,65.95
2022-10-19T06:05:31.398Z,65.93
2022-10-19T06:08:05.311Z,65.80
2022-10-19T06:10:34.014Z,65.65
2022-10-19T06:13:06.370Z,65.65
2022-10-19T06:15:36.376Z,65.77
2022-10-19T06:18:05.125Z,65.74
2022-10-19T06:20:42.416Z,65.78
2022-10-19T06:23:12.329Z,65.76
2022-10-19T06:25:47.569Z,65.67
2022-10-19T06:28:16.487Z,65.59
2022-10-19T06:30:45.361Z,65.59
2022-10-19T06:33:19.523Z,65.64
2022-10-19T06:36:26.521Z,65.52
2022-10-19T06:39:01.881Z,65.48
2022-10-19T06:41:31.306Z,65.48
2022-10-19T06:44:01.887Z,65.48
2022-10-19T06:46:32.239Z,65.50
2022-10-19T06:49:04.344Z,65.40
2022-10-19T06:51:35.614Z,65.34
2022-10-19T06:54:04.481Z,65.40
2022-10-19T06:56:39.369Z,65.38
2022-10-19T06:59:17.613Z,65.42
2022-10-19T07:01:49.231Z,65.36
2022-10-19T07:04:17.126Z,65.42
2022-10-19T07:06:45.964Z,65.25
2022-10-19T07:09:13.771Z,65.14
2022-10-19T07:11:46.196Z,65.18
2022-10-19T07:14:21.345Z,65.08
2022-10-19T07:16:50.549Z,64.70
2022-10-19T07:19:26.989Z,64.53
2022-10-19T07:21:55.841Z,64.34
2022-10-19T07:24:23.844Z,64.34
2022-10-19T07:26:52.649Z,64.12
2022-10-19T07:29:21.945Z,63.60
2022-10-19T07:31:50.897Z,63.34
2022-10-19T07:34:23.146Z,63.59
2022-10-19T07:36:59.359Z,63.53
2022-10-19T07:39:28.212Z,61.43
2022-10-19T07:41:57.164Z,59.95
2022-10-19T07:44:26.449Z,58.89
2022-10-19T07:47:01.406Z,57.70
2022-10-19T07:49:37.533Z,57.63
2022-10-19T07:52:05.465Z,57.80
2022-10-19T07:54:33.072Z,58.29
2022-10-19T07:57:03.477Z,58.19
2022-10-19T07:59:32.648Z,58.53
2022-10-19T08:02:04.677Z,58.43
2022-10-19T08:05:00.383Z,58.52
2022-10-19T08:07:21.553Z,58.54
2022-10-19T08:09:54.309Z,58.53
2022-10-19T08:12:23.492Z,58.38
2022-10-19T08:14:53.965Z,58.57
2022-10-19T08:17:21.805Z,58.52
2022-10-19T08:19:51.749Z,58.31
2022-10-19T08:22:21.561Z,57.60
2022-10-19T08:24:51.372Z,57.66
2022-10-19T08:27:19.020Z,57.50
2022-10-19T08:29:48.836Z,57.54
2022-10-19T08:32:24.584Z,56.98
2022-10-19T08:34:52.478Z,55.66
2022-10-19T08:37:40.622Z,53.39
2022-10-19T08:40:28.392Z,51.52
2022-10-19T08:43:34.413Z,52.10
2022-10-19T08:46:18.533Z,53.19
2022-10-19T08:48:57.692Z,53.77
2022-10-19T08:51:37.631Z,54.57
2022-10-19T08:54:13.804Z,55.08
2022-10-19T08:57:15.620Z,55.26
2022-10-19T09:00:02.804Z,55.33
2022-10-19T09:02:54.798Z,55.63
2022-10-19T09:05:50.551Z,55.96
2022-10-19T09:08:21.069Z,55.95
2022-10-19T09:10:54.990Z,55.70
2022-10-19T09:14:04.270Z,55.31
2022-10-19T09:16:37.292Z,54.57
2022-10-19T09:19:25.852Z,54.26
2022-10-19T09:22:02.998Z,54.39
2022-10-19T09:24:51.771Z,54.10
2022-10-19T09:27:35.701Z,54.63
2022-10-19T09:30:23.518Z,54.60
2022-10-19T09:33:02.788Z,54.10
2022-10-19T09:35:43.566Z,53.93
2022-10-19T09:38:16.907Z,53.59
2022-10-19T09:40:47.237Z,53.65
2022-10-19T09:43:20.807Z,53.38
2022-10-19T09:46:19.985Z,53.37
2022-10-19T09:48:55.748Z,53.52
2022-10-19T09:51:25.709Z,53.57
2022-10-19T09:53:56.046Z,53.69
2022-10-19T09:56:27.335Z,53.68
2022-10-19T09:58:57.865Z,53.84
2022-10-19T10:01:41.556Z,53.91
2022-10-19T10:04:17.309Z,54.11
2022-10-19T10:06:48.203Z,54.28
2022-10-19T10:09:26.035Z,54.17
2022-10-19T10:11:56.982Z,54.37
2022-10-19T10:14:33.377Z,54.30
2022-10-19T10:17:18.263Z,54.29
2022-10-19T10:20:03.455Z,54.00
2022-10-19T10:22:36.031Z,54.13
2022-10-19T10:25:13.810Z,53.65
2022-10-19T10:27:41.701Z,53.65
2022-10-19T10:30:18.765Z,53.52
2022-10-19T10:33:04.615Z,53.76
2022-10-19T10:35:53.552Z,53.88
2022-10-19T10:38:26.360Z,53.59
2022-10-19T10:41:01.101Z,53.57
2022-10-19T10:43:33.205Z,53.86
2022-10-19T10:46:07.877Z,54.22
2022-10-19T10:48:43.120Z,54.47
2022-10-19T10:51:22.045Z,54.51
2022-10-19T10:53:50.962Z,54.41
2022-10-19T10:56:29.869Z,54.63
2022-10-19T10:59:32.995Z,54.67
2022-10-19T11:02:13.045Z,54.66
2022-10-19T11:04:52.169Z,54.85
2022-10-19T11:07:26.148Z,54.88
2022-10-19T11:10:02.727Z,54.90
2022-10-19T11:13:02.065Z,54.73
2022-10-19T11:15:52.545Z,54.67
2022-10-19T11:18:32.564Z,54.44
2022-10-19T11:21:02.417Z,53.61
2022-10-19T11:23:35.406Z,53.22
2022-10-19T11:26:32.555Z,52.95
2022-10-19T11:29:21.893Z,52.22
2022-10-19T11:31:53.345Z,51.72
2022-10-19T11:34:33.352Z,51.42
2022-10-19T11:37:30.732Z,51.19
2022-10-19T11:40:22.130Z,51.42
2022-10-19T11:43:07.019Z,50.86
2022-10-19T11:45:42.839Z,51.18
2022-10-19T11:48:43.774Z,51.40
2022-10-19T11:51:22.897Z,51.68
2022-10-19T11:54:19.303Z,51.77
2022-10-19T11:57:07.311Z,51.87
2022-10-19T12:00:15.228Z,51.66
2022-10-19T12:03:03.838Z,51.41
2022-10-19T12:05:42.340Z,50.81
2022-10-19T12:08:25.617Z,50.72
2022-10-19T12:11:02.707Z,50.73
2022-10-19T12:13:48.786Z,50.51
2022-10-19T12:16:19.295Z,50.25
2022-10-19T12:18:55.473Z,49.84
2022-10-19T12:21:43.165Z,50.07
2022-10-19T12:24:22.634Z,50.32
2022-10-19T12:26:54.905Z,50.19
2022-10-19T12:29:35.912Z,50.22
2022-10-19T12:32:07.284Z,50.45
2022-10-19T12:34:39.229Z,50.52
2022-10-19T12:37:27.142Z,50.64
2022-10-19T12:40:00.153Z,50.96
2022-10-19T12:42:42.076Z,51.21
2022-10-19T12:45:36.525Z,51.06
2022-10-19T12:48:08.591Z,51.46
2022-10-19T12:50:49.790Z,51.54
2022-10-19T12:53:23.800Z,51.84
2022-10-19T12:55:59.325Z,51.92
2022-10-19T12:58:34.335Z,51.94
2022-10-19T13:01:18.273Z,51.98
2022-10-19T13:03:51.535Z,52.14
2022-10-19T13:06:23.594Z,52.14
2022-10-19T13:08:53.552Z,52.04
2022-10-19T13:11:22.759Z,52.01
2022-10-19T13:14:12.130Z,52.01
2022-10-19T13:17:02.004Z,51.83
2022-10-19T13:19:34.696Z,51.85
2022-10-19T13:22:02.597Z,52.10
2022-10-19T13:24:34.647Z,52.32
2022-10-19T13:27:27.058Z,52.45
2022-10-19T13:29:55.377Z,52.45
2022-10-19T13:32:43.650Z,52.44
2022-10-19T13:35:34.760Z,52.62
2022-10-19T13:38:17.006Z,52.95
2022-10-19T13:40:48.951Z,53.00
2022-10-19T13:43:23.694Z,52.81
2022-10-19T13:46:10.124Z,52.70
2022-10-19T13:49:03.782Z,52.66
2022-10-19T13:51:46.137Z,52.76
2022-10-19T13:54:36.006Z,52.78
2022-10-19T13:57:17.857Z,52.85
2022-10-19T13:59:54.983Z,53.05
2022-10-19T14:02:58.784Z,53.28
2022-10-19T14:05:54.427Z,53.44
2022-10-19T14:09:05.408Z,53.65
2022-10-19T14:12:17.684Z,53.79
2022-10-19T14:14:45.577Z,53.53
2022-10-19T14:17:21.202Z,53.16
2022-10-19T14:20:00.674Z,53.34
2022-10-19T14:22:31.053Z,53.49
2022-10-19T14:25:02.954Z,53.64
2022-10-19T14:27:35.156Z,53.86
2022-10-19T14:30:35.703Z,54.12
2022-10-19T14:33:11.970Z,54.79
2022-10-19T14:35:45.042Z,55.30
2022-10-19T14:38:26.341Z,55.81
2022-10-19T14:40:55.842Z,56.06
2022-10-19T14:43:30.204Z,56.29
2022-10-19T14:46:18.747Z,56.31
2022-10-19T14:48:50.529Z,56.53
2022-10-19T14:51:43.011Z,56.58
2022-10-19T14:54:19.151Z,56.66
2022-10-19T14:56:49.645Z,56.43
2022-10-19T14:59:36.432Z,56.05
2022-10-19T15:02:25.360Z,55.62
2022-10-19T15:04:58.110Z,55.49
2022-10-19T15:07:30.184Z,55.58
2022-10-19T15:10:16.591Z,55.57
2022-10-19T15:12:45.870Z,55.68
2022-10-19T15:15:30.720Z,55.93
2022-10-19T15:18:01.665Z,55.77
2022-10-19T15:20:49.392Z,56.06
2022-10-19T15:23:42.113Z,56.52
2022-10-19T15:26:17.253Z,56.72
2022-10-19T15:28:46.641Z,56.90
2022-10-19T15:31:27.794Z,56.93
2022-10-19T15:34:02.009Z,56.84
2022-10-19T15:36:34.628Z,56.80
2022-10-19T15:39:18.344Z,56.70
2022-10-19T15:41:55.216Z,56.74
2022-10-19T15:44:42.969Z,56.91
2022-10-19T15:47:19.183Z,56.89
2022-10-19T15:49:56.844Z,56.95
2022-10-19T15:52:37.389Z,57.07
2022-10-19T15:55:11.839Z,57.22
2022-10-19T15:57:40.789Z,57.35
2022-10-19T16:00:18.024Z,57.49
2022-10-19T16:02:45.823Z,57.52
2022-10-19T16:05:14.031Z,57.49
2022-10-19T16:07:43.888Z,57.67
2022-10-19T16:10:20.378Z,57.63
2022-10-19T16:12:49.706Z,57.75
2022-10-19T16:15:23.508Z,57.86
2022-10-19T16:17:54.919Z,57.99
2022-10-19T16:20:30.591Z,58.04
2022-10-19T16:22:59.514Z,57.95
2022-10-19T16:25:33.497Z,57.82
2022-10-19T16:28:09.297Z,57.72
2022-10-19T16:30:38.107Z,57.56
2022-10-19T16:33:07.053Z,57.67
2022-10-19T16:35:39.581Z,57.66
2022-10-19T16:38:08.548Z,57.75
2022-10-19T16:40:44.401Z,57.76
2022-10-19T16:43:15.274Z,57.71
2022-10-19T16:45:44.771Z,57.83
2022-10-19T16:48:13.476Z,57.94
2022-10-19T16:53:23.518Z,57.88
2022-10-19T16:55:52.529Z,57.93
2022-10-19T16:58:20.301Z,58.17
2022-10-19T17:00:49.542Z,58.10
2022-10-19T17:03:23.546Z,58.19
2022-10-19T17:05:52.633Z,58.02
2022-10-19T17:08:23.899Z,58.03
2022-10-19T17:10:55.534Z,58.17
2022-10-19T17:13:23.723Z,58.19
2022-10-19T17:15:53.818Z,58.18
2022-10-19T17:18:21.901Z,58.19
2022-10-19T17:26:03.414Z,58.79
2022-10-19T17:28:32.896Z,58.83
2022-10-19T17:31:09.518Z,58.62
2022-10-19T17:33:40.835Z,58.81
2022-10-19T17:36:12.977Z,58.97
2022-10-19T17:38:49.707Z,59.32
2022-10-19T17:41:22.351Z,59.37
2022-10-19T17:43:58.412Z,59.47
2022-10-19T17:46:34.639Z,59.59
2022-10-19T17:49:03.643Z,59.79
2022-10-19T17:51:35.877Z,59.62
2022-10-19T17:54:07.978Z,59.67
2022-10-19T17:56:38.624Z,59.82
2022-10-19T17:59:08.980Z,59.89
2022-10-19T18:01:43.833Z,60.07
2022-10-19T18:04:15.629Z,60.30
2022-10-19T18:06:43.899Z,60.31
2022-10-19T18:09:20.390Z,60.27
2022-10-19T18:12:07.583Z,60.48
2022-10-19T18:14:42.065Z,60.43
2022-10-19T18:17:31.266Z,60.55
2022-10-19T18:20:13.224Z,60.60
2022-10-19T18:22:50.180Z,60.52
2022-10-19T18:25:49.325Z,60.50
2022-10-19T18:28:24.449Z,60.45
2022-10-19T18:30:57.251Z,60.48
2022-10-19T18:33:32.860Z,60.53
2022-10-19T18:48:30.803Z,60.85
2022-10-19T18:51:06.700Z,60.76
2022-10-19T18:53:44.972Z,60.91
2022-10-19T18:56:22.487Z,60.95
2022-10-19T18:58:54.527Z,61.02
2022-10-19T19:01:27.858Z,61.04
2022-10-19T19:04:09.723Z,61.09
2022-10-19T19:06:40.136Z,61.14
2022-10-19T19:09:12.021Z,61.15
2022-10-19T19:11:42.316Z,61.28
2022-10-19T19:14:18.557Z,61.20
2022-10-19T19:16:48.211Z,61.17
2022-10-19T19:19:18.619Z,61.06
2022-10-19T19:21:49.996Z,61.21
2022-10-19T19:24:23.535Z,61.40
2022-10-19T19:26:55.292Z,61.45
2022-10-19T19:29:57.510Z,61.61
2022-10-19T19:32:32.189Z,61.80
2022-10-19T19:35:03.677Z,61.90
2022-10-19T19:37:35.660Z,62.23
2022-10-19T19:40:04.410Z,62.26
2022-10-19T19:42:32.650Z,62.47
2022-10-19T19:45:02.151Z,62.56
2022-10-19T19:47:33.278Z,62.61
2022-10-19T19:50:04.155Z,62.46
2022-10-19T19:52:34.851Z,62.28
2022-10-19T19:55:07.161Z,62.20
2022-10-19T19:57:38.668Z,62.00
2022-10-19T20:00:09.296Z,62.01
2022-10-19T20:02:41.413Z,61.93
2022-10-19T20:05:15.553Z,61.95
2022-10-19T20:07:43.400Z,61.89
2022-10-19T20:10:18.200Z,61.99
2022-10-19T20:12:46.993Z,62.17
2022-10-19T20:15:17.032Z,62.17
2022-10-19T20:17:45.682Z,62.19
2022-10-19T20:20:19.488Z,62.03
2022-10-19T20:22:49.818Z,61.86
2022-10-19T20:25:18.192Z,61.70
2022-10-19T20:27:51.372Z,61.69
2022-10-19T20:30:23.640Z,61.66
2022-10-19T20:32:55.390Z,61.59
2022-10-19T20:35:30.445Z,61.59
2022-10-19T20:37:59.411Z,61.50
2022-10-19T20:43:01.419Z,61.50
2022-10-19T20:45:33.477Z,61.50
2022-10-19T20:48:09.426Z,61.47
2022-10-19T20:50:44.593Z,61.57
2022-10-19T20:53:12.682Z,61.68
2022-10-19T20:55:41.436Z,61.75
2022-10-19T20:58:10.365Z,61.66
2022-10-19T21:00:41.398Z,61.50
2022-10-19T21:03:16.521Z,61.55
2022-10-19T21:05:46.529Z,61.74
2022-10-19T21:08:21.487Z,61.83
2022-10-19T21:10:50.413Z,61.88
2022-10-19T21:13:55.619Z,61.96
2022-10-19T21:16:30.291Z,61.81
2022-10-19T21:18:58.131Z,61.96
2022-10-19T21:21:34.832Z,61.93
2022-10-19T21:24:06.925Z,61.99
2022-10-19T21:26:36.542Z,61.97
2022-10-19T21:29:14.025Z,62.16
2022-10-19T21:31:48.711Z,62.12
2022-10-19T21:34:25.228Z,62.17
2022-10-19T21:36:54.042Z,62.40
2022-10-19T21:39:31.613Z,62.48
2022-10-19T21:42:09.548Z,62.41
2022-10-19T21:44:39.497Z,62.45
2022-10-19T21:47:13.458Z,62.49
2022-10-19T21:49:47.516Z,62.36
2022-10-19T21:52:16.470Z,62.46
2022-10-19T21:54:46.393Z,62.53
2022-10-19T21:57:47.568Z,62.39
2022-10-19T22:00:22.457Z,62.34
2022-10-19T22:07:17.646Z,62.39
2022-10-19T22:09:49.307Z,62.37
2022-10-19T22:12:19.043Z,62.24
2022-10-19T22:14:52.935Z,61.96
2022-10-19T22:17:20.732Z,61.92
2022-10-19T22:20:22.552Z,61.96
2022-10-19T22:22:58.521Z,62.06
2022-10-19T22:25:35.235Z,62.26
2022-10-19T22:28:08.599Z,62.18
2022-10-19T22:30:38.558Z,62.09
2022-10-19T22:33:08.283Z,62.01
2022-10-19T22:35:52.980Z,61.96
2022-10-19T22:38:22.081Z,61.89
2022-10-19T22:40:51.065Z,61.96
2022-10-19T22:43:26.481Z,61.93
2022-10-19T22:46:00.555Z,61.84
2022-10-19T22:48:35.557Z,62.03
2022-10-19T22:51:11.566Z,62.14
2022-10-19T22:53:41.561Z,62.20
2022-10-19T22:56:14.093Z,62.22
2022-10-19T22:58:41.802Z,62.22
2022-10-19T23:01:18.209Z,62.21
2022-10-19T23:03:51.477Z,62.19
2022-10-19T23:06:27.620Z,62.21
2022-10-19T23:08:55.840Z,62.41
2022-10-19T23:11:25.776Z,62.25
2022-10-19T23:13:53.709Z,62.24
2022-10-19T23:16:29.931Z,62.47
2022-10-19T23:18:57.706Z,62.39
2022-10-19T23:21:26.828Z,62.39
2022-10-19T23:23:55.840Z,62.32
2022-10-19T23:26:33.466Z,62.34
2022-10-19T23:29:02.277Z,62.37
2022-10-19T23:31:30.652Z,62.35
2022-10-19T23:33:59.549Z,62.46
2022-10-19T23:36:29.474Z,62.33
2022-10-19T23:39:02.547Z,62.21
2022-10-19T23:41:37.534Z,62.15
2022-10-19T23:44:06.092Z,62.20
2022-10-19T23:46:35.014Z,62.10
2022-10-19T23:49:03.864Z,62.17
2022-10-19T23:51:33.703Z,62.22
2022-10-19T23:54:02.541Z,62.23
2022-10-19T23:56:32.605Z,62.28
2022-10-19T23:59:02.884Z,62.34
